createdAt,value
2022-12-31T00:00:46.038Z,27.45
2022-12-31T00:01:46.008Z,29.08
2022-12-31T00:02:46.105Z,28.86
2022-12-31T00:03:45.988Z,28.50
2022-12-31T00:04:46.007Z,26.50
2022-12-31T00:05:45.970Z,28.17
2022-12-31T00:06:45.970Z,30.08
2022-12-31T00:07:45.945Z,26.44
2022-12-31T00:08:45.957Z,25.80
2022-12-31T00:09:45.949Z,25.88
2022-12-31T00:10:45.920Z,26.42
2022-12-31T00:11:45.927Z,27.30
2022-12-31T00:12:45.912Z,27.78
2022-12-31T00:13:45.908Z,25.75
2022-12-31T00:14:45.926Z,28.56
2022-12-31T00:15:45.899Z,25.00
2022-12-31T00:16:45.895Z,26.53
2022-12-31T00:17:45.862Z,27.64
2022-12-31T00:18:45.851Z,28.56
2022-12-31T00:19:45.848Z,26.29
2022-12-31T00:20:45.858Z,28.54
2022-12-31T00:21:45.839Z,27.37
2022-12-31T00:22:45.818Z,30.93
2022-12-31T00:23:45.827Z,25.76
2022-12-31T00:24:45.826Z,26.32
2022-12-31T00:25:45.794Z,28.70
2022-12-31T00:26:45.786Z,27.73
2022-12-31T00:27:45.780Z,28.44
2022-12-31T00:28:45.780Z,29.87
2022-12-31T00:29:45.774Z,27.50
2022-12-31T00:30:45.800Z,26.28
2022-12-31T00:31:45.733Z,27.46
2022-12-31T00:32:45.744Z,27.05
2022-12-31T00:33:45.746Z,28.37
2022-12-31T00:34:45.728Z,29.35
2022-12-31T00:35:45.710Z,28.70
2022-12-31T00:36:45.690Z,27.10
2022-12-31T00:37:45.700Z,27.78
2022-12-31T00:38:45.723Z,28.58
2022-12-31T00:39:45.678Z,25.75
2022-12-31T00:40:45.668Z,25.45
2022-12-31T00:41:45.654Z,27.31
2022-12-31T00:42:45.660Z,26.07
2022-12-31T00:43:45.660Z,26.40
2022-12-31T00:44:45.631Z,26.20
2022-12-31T00:45:45.658Z,29.30
2022-12-31T00:46:45.610Z,25.53
2022-12-31T00:47:45.625Z,27.57
2022-12-31T00:48:45.604Z,26.22
2022-12-31T00:49:45.598Z,27.34
2022-12-31T00:50:45.601Z,27.42
2022-12-31T00:51:45.561Z,26.19
2022-12-31T00:52:45.571Z,25.00
2022-12-31T00:53:45.558Z,26.47
2022-12-31T00:54:45.579Z,28.76
2022-12-31T00:55:45.564Z,27.64
2022-12-31T00:56:45.560Z,27.53
2022-12-31T00:57:45.518Z,29.15
2022-12-31T00:58:45.517Z,28.95
2022-12-31T00:59:45.513Z,28.49
2022-12-31T01:00:45.502Z,27.28
2022-12-31T01:01:45.644Z,27.27
2022-12-31T01:02:45.594Z,27.85
2022-12-31T01:03:45.468Z,25.07
2022-12-31T01:04:45.457Z,29.22
2022-12-31T01:05:45.442Z,28.94
2022-12-31T01:06:45.470Z,30.83
2022-12-31T01:07:45.437Z,29.02
2022-12-31T01:08:45.431Z,28.23
2022-12-31T01:09:45.441Z,27.26
2022-12-31T01:10:45.412Z,27.57
2022-12-31T01:11:45.400Z,26.81
2022-12-31T01:12:45.392Z,30.52
2022-12-31T01:13:45.379Z,29.16
2022-12-31T01:14:45.397Z,28.65
2022-12-31T01:15:45.408Z,28.82
2022-12-31T01:16:45.378Z,27.06
2022-12-31T01:17:45.372Z,28.34
2022-12-31T01:18:45.343Z,27.67
2022-12-31T01:19:45.322Z,27.28
2022-12-31T01:20:45.429Z,27.27
2022-12-31T01:21:45.338Z,29.27
2022-12-31T01:22:45.301Z,27.44
2022-12-31T01:23:45.292Z,28.12
2022-12-31T01:24:45.310Z,30.33
2022-12-31T01:25:45.277Z,29.06
2022-12-31T01:26:45.264Z,28.44
2022-12-31T01:27:45.253Z,27.68
2022-12-31T01:28:45.268Z,27.74
2022-12-31T01:29:45.284Z,28.52
2022-12-31T01:30:45.283Z,29.19
2022-12-31T01:31:45.227Z,27.09
2022-12-31T01:32:45.216Z,30.26
2022-12-31T01:33:45.206Z,26.83
2022-12-31T01:34:45.217Z,28.75
2022-12-31T01:35:45.192Z,27.59
2022-12-31T01:36:45.200Z,27.59
2022-12-31T01:37:45.164Z,25.00
2022-12-31T01:38:45.169Z,26.27
2022-12-31T01:39:45.155Z,26.86
2022-12-31T01:40:45.155Z,25.86
2022-12-31T01:41:45.204Z,25.91
2022-12-31T01:42:45.125Z,44.25
2022-12-31T01:43:45.121Z,53.88
2022-12-31T01:44:45.108Z,55.14
2022-12-31T01:45:45.107Z,64.28
2022-12-31T01:46:45.160Z,53.02
2022-12-31T01:47:45.077Z,54.80
2022-12-31T01:48:45.072Z,60.13
2022-12-31T01:49:45.088Z,96.74
2022-12-31T01:50:45.068Z,109.47
2022-12-31T01:51:45.048Z,114.24
2022-12-31T01:52:45.072Z,126.11
2022-12-31T01:53:45.043Z,128.34
2022-12-31T01:54:45.024Z,125.44
2022-12-31T01:55:45.018Z,123.41
2022-12-31T01:56:45.025Z,123.44
2022-12-31T01:57:45.037Z,119.25
2022-12-31T01:58:45.005Z,115.13
2022-12-31T01:59:44.995Z,115.15
2022-12-31T02:00:44.986Z,111.32
2022-12-31T02:01:45.082Z,109.43
2022-12-31T02:02:44.993Z,107.37
2022-12-31T02:03:44.947Z,108.04
2022-12-31T02:04:44.940Z,106.30
2022-12-31T02:05:44.937Z,104.20
2022-12-31T02:06:44.925Z,108.94
2022-12-31T02:07:44.936Z,105.53
2022-12-31T02:08:44.914Z,105.53
2022-12-31T02:09:44.895Z,105.14
2022-12-31T02:10:44.887Z,106.73
2022-12-31T02:11:44.870Z,108.50
2022-12-31T02:12:44.880Z,106.02
2022-12-31T02:13:44.879Z,107.27
2022-12-31T02:14:44.860Z,106.71
2022-12-31T02:15:44.914Z,110.96
2022-12-31T02:16:44.838Z,115.35
2022-12-31T02:17:44.879Z,115.65
2022-12-31T02:18:44.807Z,117.37
2022-12-31T02:19:44.808Z,122.93
2022-12-31T02:20:44.832Z,124.18
2022-12-31T02:21:44.787Z,126.33
2022-12-31T02:22:44.780Z,125.94
2022-12-31T02:23:44.769Z,129.38
2022-12-31T02:24:44.750Z,130.24
2022-12-31T02:25:44.771Z,130.90
2022-12-31T02:26:44.748Z,133.66
2022-12-31T02:27:44.763Z,131.16
2022-12-31T02:28:44.725Z,135.05
2022-12-31T02:29:44.724Z,135.99
2022-12-31T02:30:44.725Z,136.04
2022-12-31T02:31:44.754Z,138.83
2022-12-31T02:32:44.700Z,142.21
2022-12-31T02:33:44.716Z,141.49
2022-12-31T02:34:44.697Z,138.62
2022-12-31T02:35:44.663Z,138.83
2022-12-31T02:36:44.673Z,141.08
2022-12-31T02:37:44.673Z,143.45
2022-12-31T02:38:44.660Z,142.07
2022-12-31T02:39:44.643Z,143.43
2022-12-31T02:40:44.636Z,141.17
2022-12-31T02:41:44.637Z,150.32
2022-12-31T02:42:47.420Z,142.62
2022-12-31T02:43:45.603Z,143.68
2022-12-31T02:44:44.586Z,148.81
2022-12-31T02:45:44.575Z,160.45
2022-12-31T02:46:44.650Z,174.97
2022-12-31T02:47:44.568Z,184.25
2022-12-31T02:48:44.553Z,185.76
2022-12-31T02:49:44.578Z,178.94
2022-12-31T02:50:44.542Z,171.55
2022-12-31T02:51:44.524Z,170.63
2022-12-31T02:52:44.532Z,169.85
2022-12-31T02:53:44.539Z,172.64
2022-12-31T02:54:44.504Z,169.71
2022-12-31T02:55:44.488Z,167.94
2022-12-31T02:56:44.486Z,169.20
2022-12-31T02:57:44.490Z,172.86
2022-12-31T02:58:44.504Z,168.84
2022-12-31T02:59:44.484Z,170.40
2022-12-31T03:00:44.474Z,173.60
2022-12-31T03:01:44.549Z,169.78
2022-12-31T03:02:44.485Z,172.47
2022-12-31T03:03:44.418Z,176.72
2022-12-31T03:04:44.442Z,173.92
2022-12-31T03:05:44.419Z,172.12
2022-12-31T03:06:44.422Z,173.81
2022-12-31T03:07:44.394Z,177.41
2022-12-31T03:08:44.388Z,177.39
2022-12-31T03:09:44.373Z,176.66
2022-12-31T03:10:44.382Z,176.94
2022-12-31T03:11:44.377Z,175.17
2022-12-31T03:12:44.351Z,178.18
2022-12-31T03:13:44.351Z,180.58
2022-12-31T03:14:44.357Z,178.99
2022-12-31T03:15:44.339Z,176.82
2022-12-31T03:16:44.307Z,179.46
2022-12-31T03:17:44.312Z,180.17
2022-12-31T03:18:44.289Z,176.89
2022-12-31T03:19:44.300Z,177.53
2022-12-31T03:20:44.308Z,179.44
2022-12-31T03:21:44.277Z,179.46
2022-12-31T03:22:44.267Z,180.43
2022-12-31T03:23:44.253Z,178.64
2022-12-31T03:24:44.238Z,180.26
2022-12-31T03:25:44.290Z,180.27
2022-12-31T03:26:44.226Z,181.08
2022-12-31T03:27:44.224Z,181.19
2022-12-31T03:28:44.215Z,179.52
2022-12-31T03:29:44.225Z,177.87
2022-12-31T03:30:44.228Z,177.69
2022-12-31T03:31:44.233Z,177.75
2022-12-31T03:32:44.168Z,178.46
2022-12-31T03:33:44.180Z,179.66
2022-12-31T03:34:44.178Z,178.13
2022-12-31T03:35:44.162Z,180.78
2022-12-31T03:36:44.163Z,179.15
2022-12-31T03:37:44.144Z,179.67
2022-12-31T03:38:48.464Z,181.10
2022-12-31T03:39:45.117Z,181.28
2022-12-31T03:40:44.132Z,181.38
2022-12-31T03:41:44.093Z,182.05
2022-12-31T03:42:44.099Z,183.32
2022-12-31T03:43:44.170Z,181.48
2022-12-31T03:44:44.096Z,181.77
2022-12-31T03:45:44.146Z,182.18
2022-12-31T03:46:44.058Z,182.50
2022-12-31T03:47:44.068Z,184.15
2022-12-31T03:48:44.032Z,181.45
2022-12-31T03:49:44.073Z,183.97
2022-12-31T03:50:44.018Z,186.71
2022-12-31T03:51:44.035Z,183.87
2022-12-31T03:52:44.002Z,185.78
2022-12-31T03:53:43.994Z,184.04
2022-12-31T03:54:44.015Z,186.69
2022-12-31T03:55:43.994Z,187.38
2022-12-31T03:56:43.970Z,187.45
2022-12-31T03:57:43.970Z,187.49
2022-12-31T03:58:43.976Z,189.33
2022-12-31T03:59:43.966Z,185.85
2022-12-31T04:00:44.025Z,186.07
2022-12-31T04:01:44.089Z,187.76
2022-12-31T04:02:43.953Z,186.79
2022-12-31T04:03:43.938Z,187.49
2022-12-31T04:04:43.908Z,187.33
2022-12-31T04:05:43.918Z,187.61
2022-12-31T04:06:43.883Z,186.87
2022-12-31T04:07:43.883Z,188.19
2022-12-31T04:08:43.896Z,187.22
2022-12-31T04:09:43.861Z,187.25
2022-12-31T04:10:43.855Z,187.00
2022-12-31T04:11:43.848Z,187.53
2022-12-31T04:12:43.864Z,186.82
2022-12-31T04:13:43.831Z,184.97
2022-12-31T04:14:43.813Z,186.97
2022-12-31T04:15:43.836Z,185.96
2022-12-31T04:16:43.840Z,185.44
2022-12-31T04:17:43.822Z,185.43
2022-12-31T04:18:43.775Z,183.20
2022-12-31T04:19:43.778Z,183.45
2022-12-31T04:20:43.807Z,183.62
2022-12-31T04:21:43.771Z,184.58
2022-12-31T04:22:43.765Z,182.43
2022-12-31T04:23:43.769Z,183.12
2022-12-31T04:24:43.728Z,184.53
2022-12-31T04:25:43.728Z,185.00
2022-12-31T04:26:43.727Z,183.75
2022-12-31T04:27:43.935Z,183.95
2022-12-31T04:28:43.700Z,183.72
2022-12-31T04:29:43.694Z,182.96
2022-12-31T04:30:43.678Z,180.26
2022-12-31T04:31:43.725Z,180.91
2022-12-31T04:32:43.673Z,181.70
2022-12-31T04:33:43.657Z,179.32
2022-12-31T04:34:43.674Z,180.47
2022-12-31T04:35:43.633Z,180.50
2022-12-31T04:36:43.650Z,180.09
2022-12-31T04:37:43.644Z,181.01
2022-12-31T04:38:43.634Z,179.10
2022-12-31T04:39:43.607Z,178.82
2022-12-31T04:40:43.598Z,179.48
2022-12-31T04:41:43.584Z,177.78
2022-12-31T04:42:43.589Z,177.31
2022-12-31T04:43:43.554Z,177.70
2022-12-31T04:44:43.588Z,176.87
2022-12-31T04:45:43.579Z,175.94
2022-12-31T04:46:43.542Z,175.31
2022-12-31T04:47:43.554Z,173.74
2022-12-31T04:48:43.525Z,175.15
2022-12-31T04:49:43.508Z,174.87
2022-12-31T04:50:43.512Z,173.96
2022-12-31T04:51:43.526Z,174.69
2022-12-31T04:52:43.499Z,173.86
2022-12-31T04:53:43.513Z,172.71
2022-12-31T04:54:43.482Z,173.14
2022-12-31T04:55:43.500Z,172.54
2022-12-31T04:56:43.485Z,170.55
2022-12-31T04:57:43.447Z,172.28
2022-12-31T04:58:43.451Z,171.04
2022-12-31T04:59:43.445Z,170.40
2022-12-31T05:00:43.456Z,168.87
2022-12-31T05:01:43.490Z,172.05
2022-12-31T05:02:43.541Z,171.16
2022-12-31T05:03:43.400Z,172.49
2022-12-31T05:04:43.390Z,176.09
2022-12-31T05:05:43.403Z,176.88
2022-12-31T05:06:43.387Z,175.71
2022-12-31T05:07:43.385Z,172.85
2022-12-31T05:08:43.356Z,171.54
2022-12-31T05:09:43.353Z,177.42
2022-12-31T05:10:43.343Z,178.47
2022-12-31T05:11:43.424Z,177.51
2022-12-31T05:12:43.325Z,179.45
2022-12-31T05:13:43.359Z,178.03
2022-12-31T05:14:43.310Z,176.42
2022-12-31T05:15:43.347Z,179.20
2022-12-31T05:16:43.329Z,178.48
2022-12-31T05:17:43.340Z,182.89
2022-12-31T05:18:43.267Z,180.42
2022-12-31T05:19:43.310Z,181.63
2022-12-31T05:20:43.284Z,178.99
2022-12-31T05:21:43.266Z,182.07
2022-12-31T05:22:43.237Z,183.24
2022-12-31T05:23:43.261Z,181.83
2022-12-31T05:24:43.246Z,184.43
2022-12-31T05:25:43.237Z,184.45
2022-12-31T05:26:43.209Z,180.66
2022-12-31T05:27:43.280Z,182.03
2022-12-31T05:28:43.192Z,181.27
2022-12-31T05:29:43.182Z,182.77
2022-12-31T05:30:43.196Z,182.10
2022-12-31T05:31:43.182Z,182.94
2022-12-31T05:32:43.183Z,179.44
2022-12-31T05:33:43.146Z,181.53
2022-12-31T05:34:43.135Z,181.62
2022-12-31T05:35:43.121Z,180.02
2022-12-31T05:36:43.149Z,183.22
2022-12-31T05:37:43.134Z,184.41
2022-12-31T05:38:44.083Z,182.96
2022-12-31T05:39:43.094Z,181.78
2022-12-31T05:40:43.082Z,181.23
2022-12-31T05:41:43.110Z,183.04
2022-12-31T05:42:43.062Z,182.26
2022-12-31T05:43:43.055Z,182.35
2022-12-31T05:44:43.056Z,181.44
2022-12-31T05:45:43.076Z,183.19
2022-12-31T05:46:43.069Z,183.68
2022-12-31T05:47:43.022Z,180.13
2022-12-31T05:48:43.016Z,182.35
2022-12-31T05:49:43.006Z,181.82
2022-12-31T05:50:42.989Z,182.80
2022-12-31T05:51:42.984Z,184.93
2022-12-31T05:52:47.433Z,182.55
2022-12-31T05:53:42.973Z,182.82
2022-12-31T05:54:42.975Z,182.99
2022-12-31T05:55:42.950Z,183.26
2022-12-31T05:56:42.950Z,183.97
2022-12-31T05:57:42.962Z,181.80
2022-12-31T05:58:42.919Z,183.00
2022-12-31T05:59:42.948Z,181.77
2022-12-31T06:00:42.912Z,181.81
2022-12-31T06:01:42.913Z,183.27
2022-12-31T06:02:42.941Z,183.40
2022-12-31T06:03:42.926Z,188.52
2022-12-31T06:04:42.901Z,185.45
2022-12-31T06:05:42.941Z,181.19
2022-12-31T06:06:42.871Z,182.65
2022-12-31T06:07:42.878Z,183.53
2022-12-31T06:08:42.850Z,184.52
2022-12-31T06:09:42.839Z,182.75
2022-12-31T06:10:42.834Z,184.48
2022-12-31T06:11:42.832Z,186.29
2022-12-31T06:12:42.803Z,184.86
2022-12-31T06:13:42.808Z,185.52
2022-12-31T06:14:45.828Z,186.03
2022-12-31T06:15:42.838Z,190.67
2022-12-31T06:16:42.764Z,188.07
2022-12-31T06:17:42.764Z,187.26
2022-12-31T06:18:42.758Z,190.03
2022-12-31T06:19:42.753Z,188.52
2022-12-31T06:20:42.776Z,187.78
2022-12-31T06:21:42.728Z,189.45
2022-12-31T06:22:42.743Z,190.54
2022-12-31T06:23:42.706Z,191.40
2022-12-31T06:24:42.694Z,192.60
2022-12-31T06:25:42.706Z,191.26
2022-12-31T06:26:42.719Z,190.94
2022-12-31T06:27:42.680Z,192.98
2022-12-31T06:28:42.671Z,190.73
2022-12-31T06:29:42.649Z,191.47
2022-12-31T06:30:42.660Z,192.59
2022-12-31T06:31:42.663Z,192.85
2022-12-31T06:32:42.633Z,190.28
2022-12-31T06:33:42.623Z,190.08
2022-12-31T06:34:42.650Z,191.07
2022-12-31T06:35:42.605Z,190.05
2022-12-31T06:36:42.636Z,191.73
2022-12-31T06:37:42.592Z,189.54
2022-12-31T06:38:42.587Z,189.91
2022-12-31T06:39:42.566Z,190.98
2022-12-31T06:40:42.565Z,191.47
2022-12-31T06:41:42.601Z,189.60
2022-12-31T06:42:42.548Z,190.71
2022-12-31T06:43:42.568Z,189.74
2022-12-31T06:44:42.531Z,190.03
2022-12-31T06:45:42.527Z,189.83
2022-12-31T06:46:42.535Z,188.38
2022-12-31T06:47:42.534Z,190.00
2022-12-31T06:48:42.523Z,186.86
2022-12-31T06:49:42.478Z,190.03
2022-12-31T06:50:42.489Z,188.73
2022-12-31T06:51:42.495Z,188.01
2022-12-31T06:52:42.459Z,190.19
2022-12-31T06:53:42.443Z,190.66
2022-12-31T06:54:42.469Z,192.57
2022-12-31T06:55:42.430Z,191.37
2022-12-31T06:56:42.424Z,192.10
2022-12-31T06:57:42.421Z,190.34
2022-12-31T06:58:42.411Z,193.38
2022-12-31T06:59:42.425Z,192.41
2022-12-31T07:00:42.392Z,192.40
2022-12-31T07:01:42.489Z,193.38
2022-12-31T07:02:42.478Z,193.29
2022-12-31T07:03:42.381Z,190.42
2022-12-31T07:04:42.374Z,192.38
2022-12-31T07:05:42.349Z,194.46
2022-12-31T07:06:42.339Z,195.56
2022-12-31T07:07:42.356Z,194.00
2022-12-31T07:08:42.340Z,195.83
2022-12-31T07:09:42.307Z,196.65
2022-12-31T07:10:42.301Z,194.77
2022-12-31T07:11:42.300Z,196.04
2022-12-31T07:12:42.392Z,196.40
2022-12-31T07:13:42.309Z,195.85
2022-12-31T07:14:42.275Z,198.87
2022-12-31T07:15:42.307Z,199.49
2022-12-31T07:16:42.260Z,197.82
2022-12-31T07:17:42.259Z,201.20
2022-12-31T07:18:42.266Z,198.84
2022-12-31T07:19:42.243Z,200.95
2022-12-31T07:20:42.253Z,200.75
2022-12-31T07:21:42.217Z,199.99
2022-12-31T07:22:42.216Z,200.08
2022-12-31T07:23:42.206Z,199.99
2022-12-31T07:24:42.224Z,200.39
2022-12-31T07:25:42.205Z,202.62
2022-12-31T07:26:42.204Z,201.72
2022-12-31T07:27:42.187Z,203.43
2022-12-31T07:28:42.177Z,201.33
2022-12-31T07:29:42.145Z,200.42
2022-12-31T07:30:42.130Z,201.89
2022-12-31T07:31:42.159Z,202.33
2022-12-31T07:32:42.122Z,203.11
2022-12-31T07:33:42.120Z,205.22
2022-12-31T07:34:42.097Z,204.77
2022-12-31T07:35:42.105Z,204.87
2022-12-31T07:36:42.086Z,201.66
2022-12-31T07:37:42.065Z,204.49
2022-12-31T07:38:42.076Z,202.96
2022-12-31T07:39:42.065Z,201.49
2022-12-31T07:40:42.079Z,203.78
2022-12-31T07:41:42.030Z,205.01
2022-12-31T07:42:42.042Z,204.47
2022-12-31T07:43:42.035Z,203.81
2022-12-31T07:44:42.011Z,202.29
2022-12-31T07:45:42.048Z,205.35
2022-12-31T07:46:42.022Z,202.25
2022-12-31T07:47:41.978Z,204.35
2022-12-31T07:48:41.991Z,202.12
2022-12-31T07:49:42.007Z,203.48
2022-12-31T07:50:41.966Z,204.66
2022-12-31T07:51:41.988Z,202.58
2022-12-31T07:52:41.940Z,205.62
2022-12-31T07:53:41.927Z,203.72
2022-12-31T07:54:41.964Z,202.20
2022-12-31T07:55:41.917Z,203.03
2022-12-31T07:56:41.947Z,202.96
2022-12-31T07:57:41.896Z,205.04
2022-12-31T07:58:41.892Z,201.88
2022-12-31T07:59:41.873Z,203.38
2022-12-31T08:00:41.918Z,201.02
2022-12-31T08:01:42.091Z,201.77
2022-12-31T08:02:41.935Z,199.76
2022-12-31T08:03:41.860Z,202.78
2022-12-31T08:04:41.832Z,200.40
2022-12-31T08:05:41.846Z,202.11
2022-12-31T08:06:41.860Z,202.47
2022-12-31T08:07:41.815Z,201.50
2022-12-31T08:08:41.810Z,203.28
2022-12-31T08:09:41.790Z,203.24
2022-12-31T08:10:41.795Z,202.13
2022-12-31T08:11:41.779Z,201.60
2022-12-31T08:12:41.796Z,203.17
2022-12-31T08:13:41.769Z,202.16
2022-12-31T08:14:41.763Z,199.60
2022-12-31T08:15:41.776Z,201.00
2022-12-31T08:16:41.843Z,200.16
2022-12-31T08:17:41.721Z,201.51
2022-12-31T08:18:41.717Z,199.36
2022-12-31T08:19:41.706Z,202.54
2022-12-31T08:20:41.694Z,201.01
2022-12-31T08:21:41.708Z,205.67
2022-12-31T08:22:41.705Z,201.28
2022-12-31T08:23:41.666Z,201.05
2022-12-31T08:24:41.662Z,200.29
2022-12-31T08:25:41.683Z,202.02
2022-12-31T08:26:41.653Z,199.46
2022-12-31T08:27:41.658Z,198.99
2022-12-31T08:28:41.630Z,198.90
2022-12-31T08:29:41.624Z,197.80
2022-12-31T08:30:41.650Z,199.14
2022-12-31T08:31:41.624Z,198.53
2022-12-31T08:32:41.630Z,197.89
2022-12-31T08:33:41.607Z,199.62
2022-12-31T08:34:41.677Z,197.92
2022-12-31T08:35:41.580Z,199.53
2022-12-31T08:36:41.570Z,197.67
2022-12-31T08:37:41.572Z,196.56
2022-12-31T08:38:41.548Z,198.17
2022-12-31T08:39:41.590Z,197.40
2022-12-31T08:40:41.546Z,198.71
2022-12-31T08:41:43.133Z,198.26
2022-12-31T08:42:41.539Z,199.34
2022-12-31T08:43:41.506Z,198.84
2022-12-31T08:44:41.529Z,196.59
2022-12-31T08:45:41.537Z,198.68
2022-12-31T08:46:41.474Z,198.70
2022-12-31T08:47:41.505Z,199.71
2022-12-31T08:48:41.467Z,200.02
2022-12-31T08:49:41.458Z,197.97
2022-12-31T08:50:41.444Z,199.68
2022-12-31T08:51:41.444Z,196.68
2022-12-31T08:52:41.449Z,198.65
2022-12-31T08:53:41.432Z,196.57
2022-12-31T08:54:41.399Z,198.33
2022-12-31T08:55:41.410Z,201.09
2022-12-31T08:56:43.725Z,199.87
2022-12-31T08:57:42.408Z,200.06
2022-12-31T08:58:41.365Z,200.14
2022-12-31T08:59:41.365Z,199.61
2022-12-31T09:00:41.369Z,200.44
2022-12-31T09:01:41.440Z,198.60
2022-12-31T09:02:47.766Z,198.52
2022-12-31T09:03:42.368Z,198.73
2022-12-31T09:04:41.322Z,199.09
2022-12-31T09:05:41.320Z,199.38
2022-12-31T09:06:41.311Z,199.69
2022-12-31T09:07:41.328Z,199.01
2022-12-31T09:08:41.307Z,199.04
2022-12-31T09:09:41.280Z,200.93
2022-12-31T09:10:41.307Z,200.14
2022-12-31T09:11:41.260Z,200.29
2022-12-31T09:12:41.249Z,199.84
2022-12-31T09:13:41.259Z,195.98
2022-12-31T09:14:41.243Z,214.24
2022-12-31T09:15:41.238Z,227.44
2022-12-31T09:16:41.240Z,228.31
2022-12-31T09:17:41.244Z,217.49
2022-12-31T09:18:41.215Z,212.92
2022-12-31T09:19:41.197Z,239.52
2022-12-31T09:20:43.875Z,214.87
2022-12-31T09:21:41.174Z,216.48
2022-12-31T09:22:41.193Z,219.05
2022-12-31T09:23:41.174Z,212.90
2022-12-31T09:24:41.158Z,218.07
2022-12-31T09:25:41.137Z,217.19
2022-12-31T09:26:41.175Z,219.25
2022-12-31T09:27:41.115Z,221.37
2022-12-31T09:28:41.133Z,218.60
2022-12-31T09:29:41.108Z,218.66
2022-12-31T09:30:41.097Z,214.94
2022-12-31T09:31:41.111Z,215.41
2022-12-31T09:32:41.098Z,259.45
2022-12-31T09:33:41.099Z,272.16
2022-12-31T09:34:41.061Z,230.18
2022-12-31T09:35:41.053Z,249.99
2022-12-31T09:36:41.068Z,242.58
2022-12-31T09:37:41.065Z,250.00
2022-12-31T09:38:41.022Z,249.76
2022-12-31T09:39:41.048Z,250.00
2022-12-31T09:40:41.016Z,244.47
2022-12-31T09:41:41.012Z,249.53
2022-12-31T09:42:41.019Z,246.15
2022-12-31T09:43:41.012Z,244.48
2022-12-31T09:44:40.969Z,246.25
2022-12-31T09:45:41.017Z,249.38
2022-12-31T09:46:40.951Z,245.38
2022-12-31T09:47:40.945Z,229.26
2022-12-31T09:48:40.971Z,233.56
2022-12-31T09:49:40.968Z,237.64
2022-12-31T09:50:40.921Z,223.68
2022-12-31T09:51:40.928Z,226.95
2022-12-31T09:52:40.927Z,233.31
2022-12-31T09:53:40.886Z,221.36
2022-12-31T09:54:40.889Z,205.64
2022-12-31T09:55:40.907Z,203.30
2022-12-31T09:56:40.877Z,210.29
2022-12-31T09:57:40.880Z,209.24
2022-12-31T09:58:40.870Z,211.21
2022-12-31T09:59:40.867Z,210.70
2022-12-31T10:00:40.841Z,208.55
2022-12-31T10:01:40.877Z,203.70
2022-12-31T10:02:40.975Z,198.20
2022-12-31T10:03:40.847Z,190.23
2022-12-31T10:04:40.809Z,189.26
2022-12-31T10:05:40.811Z,185.36
2022-12-31T10:06:40.780Z,183.05
2022-12-31T10:07:40.782Z,181.61
2022-12-31T10:08:40.770Z,179.15
2022-12-31T10:09:40.780Z,178.76
2022-12-31T10:10:40.748Z,176.52
2022-12-31T10:11:40.732Z,173.02
2022-12-31T10:12:40.761Z,166.01
2022-12-31T10:13:40.731Z,159.88
2022-12-31T10:14:46.963Z,161.75
2022-12-31T10:15:41.708Z,161.96
2022-12-31T10:16:40.790Z,161.79
2022-12-31T10:17:40.719Z,160.94
2022-12-31T10:18:40.682Z,157.28
2022-12-31T10:19:40.671Z,147.62
2022-12-31T10:20:45.336Z,149.14
2022-12-31T10:21:41.665Z,149.38
2022-12-31T10:22:40.756Z,149.96
2022-12-31T10:23:40.663Z,163.40
2022-12-31T10:24:40.632Z,166.33
2022-12-31T10:25:40.626Z,173.56
2022-12-31T10:26:40.609Z,180.53
2022-12-31T10:27:40.628Z,198.91
2022-12-31T10:28:40.605Z,187.97
2022-12-31T10:29:40.619Z,195.81
2022-12-31T10:30:40.618Z,176.47
2022-12-31T10:31:40.590Z,177.10
2022-12-31T10:32:40.568Z,151.73
2022-12-31T10:33:40.554Z,148.49
2022-12-31T10:34:40.534Z,139.05
2022-12-31T10:35:40.541Z,137.89
2022-12-31T10:36:40.548Z,132.18
2022-12-31T10:37:40.541Z,125.36
2022-12-31T10:38:40.512Z,134.39
2022-12-31T10:39:40.542Z,134.64
2022-12-31T10:40:40.927Z,138.30
2022-12-31T10:41:40.495Z,142.44
2022-12-31T10:42:40.495Z,130.62
2022-12-31T10:43:40.467Z,134.02
2022-12-31T10:44:40.470Z,134.68
2022-12-31T10:45:40.451Z,139.00
2022-12-31T10:46:40.501Z,135.48
2022-12-31T10:47:40.431Z,132.18
2022-12-31T10:48:40.434Z,129.77
2022-12-31T10:49:40.422Z,127.91
2022-12-31T10:50:40.420Z,132.37
2022-12-31T10:51:40.428Z,131.67
2022-12-31T10:52:42.171Z,119.45
2022-12-31T10:53:40.374Z,133.88
2022-12-31T10:54:40.416Z,124.11
2022-12-31T10:55:40.367Z,123.45
2022-12-31T10:56:40.381Z,125.19
2022-12-31T10:57:40.369Z,119.59
2022-12-31T10:58:40.328Z,119.81
2022-12-31T10:59:40.421Z,113.44
2022-12-31T11:00:40.316Z,116.27
2022-12-31T11:01:40.366Z,114.68
2022-12-31T11:02:40.444Z,113.31
2022-12-31T11:03:40.401Z,113.19
2022-12-31T11:04:40.288Z,116.03
2022-12-31T11:05:40.307Z,112.82
2022-12-31T11:06:40.272Z,111.16
2022-12-31T11:07:40.268Z,110.77
2022-12-31T11:08:40.254Z,121.90
2022-12-31T11:09:40.258Z,112.80
2022-12-31T11:10:40.234Z,108.92
2022-12-31T11:11:40.222Z,114.35
2022-12-31T11:12:40.238Z,106.80
2022-12-31T11:13:40.217Z,111.75
2022-12-31T11:14:40.232Z,108.95
2022-12-31T11:15:43.882Z,112.24
2022-12-31T11:16:41.196Z,112.49
2022-12-31T11:17:40.175Z,108.76
2022-12-31T11:18:40.166Z,113.90
2022-12-31T11:19:40.153Z,109.77
2022-12-31T11:20:40.165Z,105.65
2022-12-31T11:21:41.773Z,110.59
2022-12-31T11:22:40.127Z,102.45
2022-12-31T11:23:40.120Z,111.10
2022-12-31T11:24:40.119Z,111.11
2022-12-31T11:25:40.160Z,111.50
2022-12-31T11:26:40.095Z,105.07
2022-12-31T11:27:41.801Z,106.93
2022-12-31T11:28:40.079Z,104.05
2022-12-31T11:29:40.064Z,107.11
2022-12-31T11:30:40.128Z,100.00
2022-12-31T11:31:40.077Z,102.37
2022-12-31T11:32:40.057Z,105.28
2022-12-31T11:33:42.991Z,104.74
2022-12-31T11:34:41.030Z,105.03
2022-12-31T11:35:40.021Z,99.26
2022-12-31T11:36:40.009Z,103.46
2022-12-31T11:37:40.004Z,104.76
2022-12-31T11:38:39.995Z,99.65
2022-12-31T11:39:39.994Z,98.66
2022-12-31T11:40:39.970Z,100.55
2022-12-31T11:41:39.971Z,103.17
2022-12-31T11:42:39.964Z,102.69
2022-12-31T11:43:39.967Z,101.72
2022-12-31T11:44:39.960Z,100.43
2022-12-31T11:45:43.165Z,102.84
2022-12-31T11:46:40.929Z,95.21
2022-12-31T11:48:03.900Z,99.71
2022-12-31T11:48:40.932Z,102.86
2022-12-31T11:49:39.904Z,99.93
2022-12-31T11:50:39.902Z,100.58
2022-12-31T11:51:40.693Z,95.58
2022-12-31T11:52:39.878Z,99.74
2022-12-31T11:53:39.872Z,97.22
2022-12-31T11:54:39.878Z,96.53
2022-12-31T11:55:39.838Z,92.74
2022-12-31T11:56:39.826Z,91.88
2022-12-31T11:57:39.856Z,94.78
2022-12-31T11:58:39.828Z,98.09
2022-12-31T11:59:39.822Z,95.14
2022-12-31T12:00:39.820Z,97.23
2022-12-31T12:01:39.850Z,95.78
2022-12-31T12:02:39.804Z,93.00
2022-12-31T12:03:39.807Z,95.95
2022-12-31T12:04:39.774Z,94.84
2022-12-31T12:05:39.775Z,94.17
2022-12-31T12:06:39.740Z,92.52
2022-12-31T12:07:39.747Z,88.56
2022-12-31T12:08:39.738Z,92.48
2022-12-31T12:09:39.754Z,86.03
2022-12-31T12:10:39.721Z,87.70
2022-12-31T12:11:39.709Z,85.60
2022-12-31T12:12:39.698Z,84.20
2022-12-31T12:13:39.753Z,86.31
2022-12-31T12:14:39.672Z,87.84
2022-12-31T12:15:39.711Z,86.13
2022-12-31T12:16:39.711Z,85.29
2022-12-31T12:17:39.662Z,86.99
2022-12-31T12:18:39.640Z,83.25
2022-12-31T12:19:39.658Z,80.85
2022-12-31T12:20:39.625Z,82.17
2022-12-31T12:21:39.619Z,83.21
2022-12-31T12:22:40.499Z,81.33
2022-12-31T12:23:39.641Z,81.55
2022-12-31T12:24:39.618Z,81.45
2022-12-31T12:25:39.587Z,80.68
2022-12-31T12:26:39.582Z,80.61
2022-12-31T12:27:39.597Z,77.52
2022-12-31T12:28:43.985Z,70.70
2022-12-31T12:29:39.556Z,71.04
2022-12-31T12:30:39.544Z,72.00
2022-12-31T12:31:39.623Z,64.94
2022-12-31T12:32:39.528Z,63.25
2022-12-31T12:33:39.527Z,66.63